createdAt,value
2018-06-30T04:53:19.295Z,35.9
2018-06-30T04:54:09.406Z,35.9
2018-06-30T04:54:58.855Z,35.9
2018-06-30T04:55:49.916Z,35.9
2018-06-30T04:56:38.382Z,35.9
2018-06-30T04:57:29.968Z,35.9
2018-06-30T04:58:19.329Z,35.9
2018-06-30T04:59:09.173Z,35.9
2018-06-30T05:00:00.014Z,35.9
2018-06-30T05:00:49.297Z,35.9
2018-06-30T05:01:39.896Z,35.9
2018-06-30T05:02:29.469Z,35.9
2018-06-30T05:03:20.305Z,35.9
2018-06-30T05:04:10.029Z,35.9
2018-06-30T05:04:58.951Z,35.9
2018-06-30T05:05:49.889Z,35.9
2018-06-30T05:06:39.665Z,35.9
2018-06-30T05:07:30.556Z,35.9
2018-06-30T05:08:19.780Z,35.9
2018-06-30T05:09:10.208Z,35.9
2018-06-30T05:10:00.223Z,35.9
2018-06-30T05:10:49.415Z,35.9
2018-06-30T05:11:40.393Z,35.9
2018-06-30T05:12:29.987Z,35.9
2018-06-30T05:13:20.946Z,35.9
2018-06-30T05:14:11.058Z,35.9
2018-06-30T05:15:00.589Z,35.8
2018-06-30T05:15:51.471Z,35.8
2018-06-30T05:16:41.310Z,35.9
2018-06-30T05:17:30.447Z,35.8
2018-06-30T05:18:20.812Z,35.9
2018-06-30T05:19:11.705Z,35.9
2018-06-30T05:20:01.493Z,35.9
2018-06-30T05:20:51.540Z,35.9
2018-06-30T05:21:41.892Z,35.9
2018-06-30T05:22:31.649Z,35.9
2018-06-30T05:23:21.490Z,35.8
2018-06-30T05:24:11.543Z,35.8
2018-06-30T05:25:01.882Z,35.8
2018-06-30T05:25:52.339Z,35.8
2018-06-30T05:26:41.183Z,35.8
2018-06-30T05:27:32.056Z,35.8
2018-06-30T05:28:22.123Z,35.8
2018-06-30T05:29:12.439Z,35.8
2018-06-30T05:30:02.522Z,35.8
2018-06-30T05:30:52.575Z,35.8
2018-06-30T05:31:42.357Z,35.8
2018-06-30T05:32:32.148Z,35.8
2018-06-30T05:33:23.382Z,35.8
2018-06-30T05:34:12.061Z,35.8
2018-06-30T05:35:02.323Z,35.8
2018-06-30T05:35:52.454Z,35.8
2018-06-30T05:36:43.054Z,35.8
2018-06-30T05:37:32.525Z,35.8
2018-06-30T05:38:22.299Z,35.8
2018-06-30T05:39:13.005Z,35.8
2018-06-30T05:40:03.262Z,35.8
2018-06-30T05:40:51.760Z,35.8
2018-06-30T05:41:42.412Z,35.8
2018-06-30T05:42:33.170Z,35.8
2018-06-30T05:43:23.232Z,35.8
2018-06-30T05:44:13.135Z,35.8
2018-06-30T05:45:02.932Z,35.8
2018-06-30T05:45:52.935Z,35.8
2018-06-30T05:46:43.576Z,35.8
2018-06-30T05:47:33.523Z,35.8
2018-06-30T05:48:23.067Z,35.8
2018-06-30T05:49:13.975Z,35.8
2018-06-30T05:50:03.534Z,35.8
2018-06-30T05:50:53.840Z,35.8
2018-06-30T05:51:43.644Z,35.8
2018-06-30T05:52:33.662Z,35.8
2018-06-30T05:53:24.539Z,35.8
2018-06-30T05:54:13.491Z,35.7
2018-06-30T05:55:04.377Z,35.7
2018-06-30T05:55:53.929Z,35.7
2018-06-30T05:56:43.989Z,35.7
2018-06-30T05:57:34.622Z,35.7
2018-06-30T05:59:42.425Z,35.7
2018-06-30T05:59:53.845Z,35.7
2018-06-30T06:00:43.920Z,35.7
2018-06-30T06:01:33.745Z,35.7
2018-06-30T06:02:24.142Z,35.7
2018-06-30T06:03:14.407Z,35.7
2018-06-30T06:04:04.707Z,35.7
2018-06-30T06:04:53.914Z,35.6
2018-06-30T06:05:44.847Z,35.6
2018-06-30T06:06:34.604Z,35.6
2018-06-30T06:07:24.962Z,35.6
2018-06-30T06:08:14.462Z,35.6
2018-06-30T06:09:04.827Z,35.6
2018-06-30T06:09:56.523Z,35.6
2018-06-30T06:10:44.804Z,35.6
2018-06-30T06:11:35.269Z,35.6
2018-06-30T06:12:24.292Z,35.6
2018-06-30T06:13:14.967Z,35.6
2018-06-30T06:14:04.970Z,35.6
2018-06-30T06:14:54.229Z,35.6
2018-06-30T06:15:44.307Z,35.6
2018-06-30T06:16:35.144Z,35.6
2018-06-30T06:17:24.914Z,35.6
2018-06-30T06:18:15.791Z,35.6
2018-06-30T06:19:05.899Z,35.5
2018-06-30T06:19:55.689Z,35.5
2018-06-30T06:20:45.748Z,35.5
2018-06-30T06:21:36.039Z,35.5
2018-06-30T06:22:26.404Z,35.5
2018-06-30T06:23:15.619Z,35.5
2018-06-30T06:24:06.181Z,35.5
2018-06-30T06:24:56.038Z,35.4
2018-06-30T06:25:45.856Z,35.4
2018-06-30T06:26:36.397Z,35.5
2018-06-30T06:27:27.208Z,35.4
2018-06-30T06:28:16.835Z,35.5
2018-06-30T06:29:06.348Z,35.4
2018-06-30T06:29:55.814Z,35.4
2018-06-30T06:30:46.985Z,35.4
2018-06-30T06:31:36.564Z,35.4
2018-06-30T06:32:26.363Z,35.4
2018-06-30T06:33:16.116Z,35.4
2018-06-30T06:34:06.183Z,35.4
2018-06-30T06:34:55.965Z,35.4
2018-06-30T06:35:46.058Z,35.4
2018-06-30T06:36:36.198Z,35.4
2018-06-30T06:37:27.035Z,35.4
2018-06-30T06:38:16.550Z,35.4
2018-06-30T06:39:06.567Z,35.4
2018-06-30T06:39:56.930Z,35.4
2018-06-30T06:40:47.258Z,35.4
2018-06-30T06:41:37.191Z,35.4
2018-06-30T06:42:27.316Z,35.4
2018-06-30T06:43:17.150Z,35.4
2018-06-30T06:44:07.460Z,35.4
2018-06-30T06:44:58.085Z,35.4
2018-06-30T06:45:47.020Z,35.4
2018-06-30T06:46:38.013Z,35.5
2018-06-30T06:47:27.980Z,35.5
2018-06-30T06:48:17.744Z,35.5
2018-06-30T06:49:08.135Z,35.5
2018-06-30T06:49:56.582Z,35.5
2018-06-30T06:50:46.978Z,35.5
2018-06-30T06:51:37.237Z,35.4
2018-06-30T06:52:27.469Z,35.4
2018-06-30T06:53:17.342Z,35.4
2018-06-30T06:54:07.984Z,35.4
2018-06-30T06:54:57.534Z,35.4
2018-06-30T06:55:47.934Z,35.4
2018-06-30T06:56:37.570Z,35.4
2018-06-30T06:57:28.802Z,35.4
2018-06-30T06:58:18.528Z,35.4
2018-06-30T06:59:08.036Z,35.4
2018-06-30T06:59:58.635Z,35.4
2018-06-30T07:00:48.457Z,35.4
2018-06-30T07:01:38.190Z,35.4
2018-06-30T07:02:28.600Z,35.4
2018-06-30T07:03:18.942Z,35.4
2018-06-30T07:04:08.729Z,35.4
2018-06-30T07:04:58.484Z,35.4
2018-06-30T07:05:49.147Z,35.4
2018-06-30T07:06:38.896Z,35.4
2018-06-30T07:07:29.216Z,35.4
2018-06-30T07:08:19.592Z,35.4
2018-06-30T07:09:08.852Z,35.4
2018-06-30T07:10:00.062Z,35.4
2018-06-30T07:10:49.204Z,35.4
2018-06-30T07:11:39.256Z,35.4
2018-06-30T07:12:30.164Z,35.4
2018-06-30T07:13:20.135Z,35.4
2018-06-30T07:14:10.228Z,35.4
2018-06-30T07:14:59.526Z,35.3
2018-06-30T07:15:49.876Z,35.3
2018-06-30T07:16:39.636Z,35.3
2018-06-30T07:17:29.660Z,35.4
2018-06-30T07:18:20.036Z,35.4
2018-06-30T07:19:09.904Z,35.4
2018-06-30T07:20:00.146Z,35.4
2018-06-30T07:20:50.212Z,35.3
2018-06-30T07:21:40.406Z,35.3
2018-06-30T07:22:30.087Z,35.3
2018-06-30T07:23:20.691Z,35.4
2018-06-30T07:24:09.632Z,35.4
2018-06-30T07:25:00.270Z,35.3
2018-06-30T07:25:49.740Z,35.4
2018-06-30T07:26:40.918Z,35.4
2018-06-30T07:27:30.485Z,35.4
2018-06-30T07:28:20.667Z,35.3
2018-06-30T07:29:09.763Z,35.3
2018-06-30T07:30:00.608Z,35.3
2018-06-30T07:30:52.086Z,35.3
2018-06-30T07:31:40.793Z,35.3
2018-06-30T07:32:30.574Z,35.3
2018-06-30T07:33:21.806Z,35.3
2018-06-30T07:34:11.215Z,35.3
2018-06-30T07:35:01.338Z,35.2
2018-06-30T07:35:51.342Z,35.2
2018-06-30T07:36:41.402Z,35.2
2018-06-30T07:37:32.303Z,35.2
2018-06-30T07:38:21.535Z,35.1
2018-06-30T07:39:11.495Z,35.1
2018-06-30T07:40:02.200Z,35.1
2018-06-30T07:40:52.282Z,35.1
2018-06-30T07:41:41.524Z,35.1
2018-06-30T07:42:32.194Z,35.1
2018-06-30T07:43:22.069Z,35.1
2018-06-30T07:44:12.681Z,35.1
2018-06-30T07:45:02.050Z,35.1
2018-06-30T07:45:52.406Z,35.1
2018-06-30T07:46:42.669Z,35.1
2018-06-30T07:47:32.289Z,35.1
2018-06-30T07:48:22.296Z,35
2018-06-30T07:49:12.144Z,35
2018-06-30T07:50:02.709Z,35
2018-06-30T07:50:52.744Z,35
2018-06-30T07:51:42.834Z,35.1
2018-06-30T07:52:31.889Z,35
2018-06-30T07:53:22.531Z,35
2018-06-30T07:54:12.732Z,34.9
2018-06-30T07:55:02.481Z,35
2018-06-30T07:55:52.789Z,35
2018-06-30T07:56:43.071Z,34.9
2018-06-30T07:57:32.954Z,34.9
2018-06-30T07:58:23.043Z,34.9
2018-06-30T07:59:12.851Z,34.9
2018-06-30T08:00:03.198Z,34.9
2018-06-30T08:00:53.233Z,34.9
2018-06-30T08:01:43.343Z,34.9
2018-06-30T08:02:33.367Z,34.9
2018-06-30T08:03:22.823Z,34.9
2018-06-30T08:04:13.470Z,34.9
2018-06-30T08:05:03.518Z,34.9
2018-06-30T08:05:53.635Z,34.9
2018-06-30T08:06:43.748Z,34.9
2018-06-30T08:07:33.487Z,34.9
2018-06-30T08:08:23.863Z,34.9
2018-06-30T08:09:14.175Z,34.9
2018-06-30T08:10:03.953Z,29
2018-06-30T08:10:53.693Z,30.9
2018-06-30T08:11:44.335Z,35.6
2018-06-30T08:12:33.822Z,36.4
2018-06-30T08:13:23.614Z,36.5
2018-06-30T08:14:14.072Z,36.4
2018-06-30T08:15:04.070Z,36.3
2018-06-30T08:15:54.379Z,36.1
2018-06-30T08:16:44.442Z,35.9
2018-06-30T08:17:34.859Z,35.8
2018-06-30T08:18:24.576Z,35.6
2018-06-30T08:19:14.316Z,35.6
2018-06-30T08:20:04.535Z,35.6
2018-06-30T08:20:54.489Z,35.6
2018-06-30T08:21:44.217Z,35.6
2018-06-30T08:22:34.897Z,35.6
2018-06-30T08:23:24.654Z,35.1
2018-06-30T08:24:15.261Z,36.5
2018-06-30T08:25:05.617Z,44.4
2018-06-30T08:25:55.142Z,46.3
2018-06-30T08:26:45.496Z,45.5
2018-06-30T08:27:35.218Z,44
2018-06-30T08:28:25.047Z,43.2
2018-06-30T08:29:15.439Z,43.6
2018-06-30T08:30:04.599Z,44.9
2018-06-30T08:30:55.239Z,45.9
2018-06-30T08:31:45.823Z,46.3
2018-06-30T08:32:35.883Z,46.6
2018-06-30T08:33:25.951Z,46.8
2018-06-30T08:34:16.085Z,47.1
2018-06-30T08:35:06.101Z,47.3
2018-06-30T08:35:55.591Z,47.4
2018-06-30T08:36:45.965Z,47.7
2018-06-30T08:37:36.037Z,47.6
2018-06-30T08:38:25.866Z,47.1
2018-06-30T08:39:16.125Z,46.5
2018-06-30T08:40:06.199Z,46
2018-06-30T08:40:56.237Z,45.6
2018-06-30T08:41:46.381Z,45.3
2018-06-30T08:42:36.930Z,45.1
2018-06-30T08:43:26.731Z,44.9
2018-06-30T08:44:16.848Z,44.8
2018-06-30T08:45:06.373Z,44.6
2018-06-30T08:45:56.940Z,44.4
2018-06-30T08:46:46.448Z,44.3
2018-06-30T08:47:36.268Z,44.4
2018-06-30T08:48:26.640Z,44.6
2018-06-30T08:49:16.902Z,44.6
2018-06-30T08:50:06.715Z,44.6
2018-06-30T08:50:57.091Z,44.8
2018-06-30T08:51:47.216Z,44.8
2018-06-30T08:52:37.315Z,44.9
2018-06-30T08:53:27.808Z,45.3
2018-06-30T08:54:17.409Z,45.4
2018-06-30T08:55:07.446Z,45.3
2018-06-30T08:55:57.453Z,45.2
2018-06-30T08:56:47.227Z,45.1
2018-06-30T08:57:37.280Z,45
2018-06-30T08:58:28.146Z,44.9
2018-06-30T08:59:18.229Z,44.6
2018-06-30T09:00:07.444Z,44.4
2018-06-30T09:00:57.547Z,44.1
2018-06-30T09:01:48.178Z,43.8
2018-06-30T09:02:37.353Z,43.6
2018-06-30T09:03:27.737Z,43.5
2018-06-30T09:04:18.405Z,43.5
2018-06-30T09:05:07.831Z,43.4
2018-06-30T09:05:58.471Z,43.4
2018-06-30T09:06:49.433Z,43.3
2018-06-30T09:07:38.094Z,43.2
2018-06-30T09:08:28.430Z,43.1
2018-06-30T09:09:18.711Z,43.1
2018-06-30T09:10:08.534Z,42.9
2018-06-30T09:10:58.594Z,42.9
2018-06-30T09:11:47.812Z,42.9
2018-06-30T09:12:38.989Z,42.9
2018-06-30T09:13:28.566Z,42.9
2018-06-30T09:14:18.816Z,42.9
2018-06-30T09:15:08.899Z,43
2018-06-30T09:15:58.463Z,43.1
2018-06-30T09:16:49.099Z,43.2
2018-06-30T09:17:38.803Z,43.3
2018-06-30T09:18:29.694Z,43.2
2018-06-30T09:19:19.468Z,43.3
2018-06-30T09:20:09.375Z,43.4
2018-06-30T09:20:59.940Z,43.6
2018-06-30T09:21:49.418Z,43.7
2018-06-30T09:22:39.726Z,43.7
2018-06-30T09:23:29.506Z,43.6
2018-06-30T09:24:20.173Z,43.6
2018-06-30T09:25:09.713Z,43.7
2018-06-30T09:25:59.811Z,43.8
2018-06-30T09:26:50.129Z,43.9
2018-06-30T09:27:39.278Z,43.8
2018-06-30T09:28:29.885Z,43.8
2018-06-30T09:29:20.100Z,43.7
2018-06-30T09:30:10.036Z,43.6
2018-06-30T09:31:00.387Z,43.7
2018-06-30T09:31:49.887Z,43.8
2018-06-30T09:32:40.565Z,43.8
2018-06-30T09:33:30.362Z,44
2018-06-30T09:34:20.170Z,44.2
2018-06-30T09:35:10.152Z,44.3
2018-06-30T09:35:59.660Z,44.4
2018-06-30T09:36:50.562Z,44.3
2018-06-30T09:37:40.077Z,44.2
2018-06-30T09:38:31.053Z,44.1
2018-06-30T09:39:21.072Z,44.1
2018-06-30T09:40:10.810Z,44.2
2018-06-30T09:41:00.989Z,44.1
2018-06-30T09:41:51.202Z,44
2018-06-30T09:42:41.280Z,43.9
2018-06-30T09:43:30.486Z,43.9
2018-06-30T09:44:22.143Z,43.9
2018-06-30T09:45:11.271Z,43.9
2018-06-30T09:46:01.269Z,43.9
2018-06-30T09:46:51.306Z,43.9
2018-06-30T09:47:41.106Z,44.1
2018-06-30T09:48:30.604Z,44.3
2018-06-30T09:49:21.798Z,44.6
2018-06-30T09:50:11.881Z,45.2
2018-06-30T09:51:03.100Z,45.8
2018-06-30T09:51:51.693Z,45.9
2018-06-30T09:52:42.026Z,45.7
2018-06-30T09:53:32.074Z,45.3
2018-06-30T09:54:22.138Z,44.9
2018-06-30T09:55:12.559Z,44.8
2018-06-30T09:56:02.571Z,44.8
2018-06-30T09:56:53.480Z,44.9
2018-06-30T09:57:42.665Z,45.1
2018-06-30T09:58:32.200Z,45.3
2018-06-30T09:59:22.817Z,45.6
2018-06-30T10:00:12.889Z,46.2
2018-06-30T10:01:03.010Z,46.4
2018-06-30T10:01:53.005Z,46.3
2018-06-30T10:02:42.782Z,46.1
2018-06-30T10:03:32.598Z,46.1
2018-06-30T10:04:23.170Z,46.3
2018-06-30T10:05:13.235Z,46.3
2018-06-30T10:06:03.355Z,46.6
2018-06-30T10:06:54.356Z,47
2018-06-30T10:07:43.474Z,47.2
2018-06-30T10:08:33.526Z,47.2
2018-06-30T10:09:23.599Z,47.3
2018-06-30T10:10:13.360Z,47.7
2018-06-30T10:11:03.707Z,48.6
2018-06-30T10:11:53.755Z,49.3
2018-06-30T10:12:44.628Z,49.6
2018-06-30T10:13:33.899Z,50
2018-06-30T10:14:22.975Z,50.1
2018-06-30T10:15:14.022Z,49.8
2018-06-30T10:16:02.982Z,49.2
2018-06-30T10:16:53.879Z,48.6
2018-06-30T10:17:44.978Z,48.4
2018-06-30T10:18:34.279Z,48.5
2018-06-30T10:19:24.221Z,48.8
2018-06-30T10:20:14.431Z,48.8
2018-06-30T10:21:05.779Z,48.8
2018-06-30T10:21:54.268Z,49.1
2018-06-30T10:22:44.669Z,49.2
2018-06-30T10:23:34.403Z,49.1
2018-06-30T10:24:24.724Z,48.8
2018-06-30T10:25:14.824Z,48.9
2018-06-30T10:26:04.918Z,49.9
2018-06-30T10:26:54.686Z,50.9
2018-06-30T10:27:44.791Z,51.6
2018-06-30T10:28:34.828Z,52.1
2018-06-30T10:29:25.141Z,52.4
2018-06-30T10:30:14.921Z,52.7
2018-06-30T10:31:05.043Z,52.9
2018-06-30T10:31:54.840Z,52.9
2018-06-30T10:32:45.385Z,53.1
2018-06-30T10:33:35.467Z,52.7
2018-06-30T10:34:25.273Z,52.3
2018-06-30T10:35:15.588Z,52.2
2018-06-30T10:36:05.198Z,52.7
2018-06-30T10:36:55.438Z,53.4
2018-06-30T10:37:45.768Z,53.9
2018-06-30T10:38:35.603Z,53.9
2018-06-30T10:39:25.622Z,53.4
2018-06-30T10:40:14.917Z,52.9
2018-06-30T10:41:05.475Z,52.3
2018-06-30T10:41:55.544Z,51.7
2018-06-30T10:42:46.142Z,51.6
2018-06-30T10:43:35.955Z,52.4
2018-06-30T10:44:26.632Z,53.4
2018-06-30T10:45:16.372Z,53.8
2018-06-30T10:46:06.157Z,53.6
2018-06-30T10:46:55.256Z,52.9
2018-06-30T10:47:46.242Z,52.1
2018-06-30T10:48:36.592Z,51.5
2018-06-30T10:49:26.669Z,51.3
2018-06-30T10:50:16.727Z,51.5
2018-06-30T10:51:06.532Z,51.6
2018-06-30T10:51:56.699Z,51.5
2018-06-30T10:52:46.428Z,51.3
2018-06-30T10:53:37.017Z,51.8
2018-06-30T10:54:26.819Z,52.7
2018-06-30T10:55:17.203Z,53
2018-06-30T10:56:07.212Z,52.6
2018-06-30T10:56:56.402Z,52
2018-06-30T10:57:47.035Z,51.6
2018-06-30T10:58:36.575Z,51.3
2018-06-30T10:59:26.670Z,51.2
2018-06-30T11:00:18.272Z,51.4
2018-06-30T11:01:07.585Z,51.8
2018-06-30T11:01:57.630Z,52
2018-06-30T11:02:47.437Z,51.8
2018-06-30T11:03:37.769Z,51.4
2018-06-30T11:04:28.135Z,51.1
2018-06-30T11:05:19.042Z,50.9
2018-06-30T11:06:07.728Z,51.2
2018-06-30T11:06:58.027Z,51.6
2018-06-30T11:08:38.214Z,52.1
2018-06-30T11:09:27.708Z,52.3
2018-06-30T11:10:18.029Z,52.8
2018-06-30T11:11:09.362Z,52.7
2018-06-30T11:11:58.152Z,52.5
2018-06-30T11:12:49.449Z,52.9
2018-06-30T11:13:38.264Z,53.6
2018-06-30T11:14:28.644Z,54.1
2018-06-30T11:15:18.183Z,53.9
2018-06-30T11:16:08.019Z,53.3
2018-06-30T11:16:58.840Z,53.4
2018-06-30T11:17:48.944Z,54.3
2018-06-30T11:18:38.924Z,54.7
2018-06-30T11:19:27.246Z,54.3
2018-06-30T11:20:19.720Z,53.8
2018-06-30T11:21:09.103Z,53.9
2018-06-30T11:21:59.166Z,54.7
2018-06-30T11:22:48.698Z,55.5
2018-06-30T11:23:39.049Z,56.1
2018-06-30T11:24:29.380Z,56.3
2018-06-30T11:25:19.193Z,56.4
2018-06-30T11:26:09.268Z,56.4
2018-06-30T11:26:59.608Z,56.5
2018-06-30T11:27:49.617Z,56.6
2018-06-30T11:28:39.720Z,56.8
2018-06-30T11:29:30.802Z,56.8
2018-06-30T11:30:19.260Z,56.9
2018-06-30T11:31:09.925Z,56.8
2018-06-30T11:32:00.083Z,56.8
2018-06-30T11:32:50.012Z,56.9
2018-06-30T11:33:40.114Z,57.1
2018-06-30T11:34:29.944Z,57.2
2018-06-30T11:35:20.266Z,57.3
2018-06-30T11:36:10.012Z,57.4
2018-06-30T11:36:59.829Z,57.5
2018-06-30T11:37:50.132Z,57.6
2018-06-30T11:38:39.930Z,57.6
2018-06-30T11:39:30.631Z,57.6
2018-06-30T11:40:20.364Z,57.6
2018-06-30T11:41:10.654Z,57.6
2018-06-30T11:42:00.737Z,57.7
2018-06-30T11:43:40.609Z,57.8
2018-06-30T11:44:30.681Z,57.8
2018-06-30T11:47:01.129Z,57.8
2018-06-30T11:47:51.173Z,57.8
2018-06-30T11:48:40.983Z,57.9
2018-06-30T11:49:31.306Z,57.9
2018-06-30T11:50:21.975Z,57.9
2018-06-30T11:51:10.883Z,58.1
2018-06-30T11:52:01.529Z,58.3
2018-06-30T11:52:51.645Z,58.4
2018-06-30T11:53:41.650Z,58.4
2018-06-30T11:54:31.713Z,58.4
2018-06-30T11:55:21.863Z,58.4
2018-06-30T11:56:11.823Z,58.4
2018-06-30T11:57:01.618Z,58.4
2018-06-30T11:57:51.962Z,58.4
2018-06-30T11:58:41.209Z,58.4
2018-06-30T11:59:32.110Z,58.4
2018-06-30T12:00:22.190Z,58.4
2018-06-30T12:01:11.953Z,58.4
2018-06-30T12:02:02.736Z,58.4
2018-06-30T12:02:52.075Z,58.4
2018-06-30T12:03:43.165Z,58.4
2018-06-30T12:04:31.987Z,58.4
2018-06-30T12:05:22.544Z,58.4
2018-06-30T12:06:12.315Z,58.4
2018-06-30T12:07:02.390Z,58.3
2018-06-30T12:07:52.708Z,58.3
2018-06-30T12:08:42.802Z,58.4
2018-06-30T12:09:32.898Z,58.4
2018-06-30T12:10:22.926Z,58.4
2018-06-30T12:11:12.709Z,58.4
2018-06-30T12:12:02.805Z,58.4
2018-06-30T12:12:53.113Z,58.3
2018-06-30T12:13:42.897Z,58.4
2018-06-30T12:14:33.270Z,58.3
2018-06-30T12:15:21.402Z,58.4
2018-06-30T12:16:13.382Z,58.4
2018-06-30T12:17:02.972Z,58.5
2018-06-30T12:17:52.899Z,58.5
2018-06-30T12:18:43.557Z,58.4
2018-06-30T12:19:33.641Z,58.4
2018-06-30T12:20:23.454Z,58.4
2018-06-30T12:21:13.788Z,58.4
2018-06-30T12:22:54.941Z,58.7
2018-06-30T12:23:44.035Z,58.8
2018-06-30T12:24:34.027Z,58.8
2018-06-30T12:25:24.104Z,58.7
2018-06-30T12:27:53.798Z,58.4
2018-06-30T12:28:44.059Z,58.2
2018-06-30T12:29:34.295Z,58.2
2018-06-30T12:30:24.535Z,58.3
2018-06-30T12:31:14.061Z,58.2
2018-06-30T12:32:04.715Z,58.1
2018-06-30T12:32:54.191Z,57.9
2018-06-30T12:33:44.326Z,57.8
2018-06-30T12:34:35.044Z,57.6
2018-06-30T12:35:25.077Z,57.4
2018-06-30T12:36:14.195Z,57.4
2018-06-30T12:37:04.213Z,57.3
2018-06-30T12:37:54.458Z,57.3
2018-06-30T12:38:44.389Z,57.3
2018-06-30T12:39:35.060Z,57.3
2018-06-30T12:40:24.548Z,57.1
2018-06-30T12:41:14.856Z,57.1
2018-06-30T12:42:04.991Z,57
2018-06-30T12:42:55.273Z,57.1
2018-06-30T12:43:45.113Z,57
2018-06-30T12:44:35.750Z,56.9
2018-06-30T12:45:24.498Z,56.8
2018-06-30T12:46:14.739Z,56.6
2018-06-30T12:47:04.676Z,56.4
2018-06-30T12:47:55.906Z,56.3
2018-06-30T12:48:45.828Z,56.3
2018-06-30T12:49:36.173Z,56.4
2018-06-30T12:50:25.900Z,56.3
2018-06-30T12:51:15.393Z,56.2
2018-06-30T12:52:05.878Z,56
2018-06-30T12:52:55.820Z,55.9
2018-06-30T12:53:46.198Z,55.8
2018-06-30T12:54:37.153Z,55.8
2018-06-30T12:55:26.308Z,55.9
2018-06-30T12:56:16.370Z,56
2018-06-30T12:57:05.828Z,56.1
2018-06-30T12:57:56.966Z,56.1
2018-06-30T12:58:46.186Z,56.2
2018-06-30T12:59:35.987Z,56.2
2018-06-30T13:00:26.913Z,56.1
2018-06-30T13:01:16.485Z,56
2018-06-30T13:02:06.577Z,55.9
2018-06-30T13:02:56.599Z,55.9
2018-06-30T13:03:46.548Z,55.9
2018-06-30T13:04:36.409Z,55.8
2018-06-30T13:05:27.301Z,55.8
2018-06-30T13:06:17.361Z,55.6
2018-06-30T13:07:07.138Z,55.4
2018-06-30T13:07:56.869Z,55.1
2018-06-30T13:08:47.606Z,54.9
2018-06-30T13:09:37.962Z,54.9
2018-06-30T13:10:27.457Z,54.9
2018-06-30T13:11:16.727Z,55
2018-06-30T13:12:07.659Z,55.1
2018-06-30T13:12:57.623Z,55.2
2018-06-30T13:13:47.698Z,55.3
2018-06-30T13:14:37.776Z,55.3
2018-06-30T13:15:28.026Z,55.2
2018-06-30T13:16:18.971Z,55.2
2018-06-30T13:17:07.608Z,55.2
2018-06-30T13:17:57.736Z,55.2
2018-06-30T13:18:47.783Z,55.1
2018-06-30T13:19:37.596Z,55.1
2018-06-30T13:20:28.206Z,55.1
2018-06-30T13:21:17.681Z,55.1
2018-06-30T13:22:08.710Z,55.3
2018-06-30T13:22:57.893Z,55.4
2018-06-30T13:23:48.275Z,55.4
2018-06-30T13:24:38.800Z,55.5
2018-06-30T13:25:28.943Z,55.6
2018-06-30T13:26:19.240Z,55.6
2018-06-30T13:27:08.238Z,55.7
2018-06-30T13:27:58.755Z,55.7
2018-06-30T13:28:49.740Z,55.7
2018-06-30T13:29:38.628Z,55.8
2018-06-30T13:30:28.976Z,55.7
2018-06-30T13:31:18.479Z,55.7
2018-06-30T13:32:09.717Z,55.6
2018-06-30T13:32:59.237Z,55.6
2018-06-30T13:33:48.531Z,55.6
2018-06-30T13:34:37.973Z,55.6
2018-06-30T13:35:29.130Z,55.6
2018-06-30T13:36:18.873Z,55.5
2018-06-30T13:37:08.438Z,55.4
2018-06-30T13:37:58.971Z,55.4
2018-06-30T13:38:49.076Z,55.4
2018-06-30T13:39:39.148Z,55.3
2018-06-30T13:40:29.464Z,55.3
2018-06-30T13:41:19.690Z,55.3
2018-06-30T13:42:09.580Z,55.3
2018-06-30T13:42:59.385Z,55.2
2018-06-30T13:43:48.902Z,55.1
2018-06-30T13:44:40.069Z,55.1
2018-06-30T13:45:29.588Z,55
2018-06-30T13:46:20.444Z,55
2018-06-30T13:47:09.994Z,54.9
2018-06-30T13:47:59.763Z,54.9
2018-06-30T13:48:50.149Z,54.8
2018-06-30T13:49:40.018Z,54.8
2018-06-30T13:50:30.269Z,54.8
2018-06-30T13:51:19.573Z,54.7
2018-06-30T13:52:10.123Z,54.6
2018-06-30T13:53:01.023Z,54.6
2018-06-30T13:53:50.583Z,54.6
2018-06-30T13:54:40.740Z,54.5
2018-06-30T13:55:30.878Z,54.4
2018-06-30T13:56:20.908Z,54.4
2018-06-30T13:57:10.658Z,54.4
2018-06-30T13:58:01.263Z,54.3
2018-06-30T13:58:50.340Z,54.3
2018-06-30T13:59:41.402Z,54.2
2018-06-30T14:00:31.490Z,54.1
2018-06-30T14:01:21.250Z,54.1
2018-06-30T14:02:10.515Z,54.1
2018-06-30T14:03:01.713Z,54
2018-06-30T14:03:51.493Z,53.9
2018-06-30T14:04:41.795Z,53.9
2018-06-30T14:05:30.770Z,53.9
2018-06-30T14:06:21.108Z,53.8
2018-06-30T14:07:11.767Z,53.8
2018-06-30T14:08:01.497Z,53.7
2018-06-30T14:08:51.314Z,53.6
2018-06-30T14:09:41.485Z,53.5
2018-06-30T14:10:31.440Z,53.4
2018-06-30T14:11:21.532Z,53.4
2018-06-30T14:12:12.374Z,53.3
2018-06-30T14:13:01.942Z,53.3
2018-06-30T14:13:51.794Z,53.1
2018-06-30T14:14:42.312Z,53.1
2018-06-30T14:15:32.724Z,53
2018-06-30T14:16:22.737Z,52.9
2018-06-30T14:17:12.040Z,52.9
2018-06-30T14:18:02.127Z,52.8
2018-06-30T14:18:52.142Z,52.7
2018-06-30T14:19:42.733Z,52.6
2018-06-30T14:20:32.499Z,52.6
2018-06-30T14:21:22.837Z,52.5
2018-06-30T14:22:12.356Z,52.4
2018-06-30T14:23:53.064Z,52.3
2018-06-30T14:24:43.337Z,52.3
2018-06-30T14:25:32.094Z,52.2
2018-06-30T14:26:23.254Z,52.1
2018-06-30T14:27:13.028Z,52.1
2018-06-30T14:28:03.331Z,52
2018-06-30T14:29:43.201Z,51.9
2018-06-30T14:30:33.542Z,51.8
2018-06-30T14:31:23.326Z,51.8
2018-06-30T14:32:13.919Z,51.7
2018-06-30T14:33:03.543Z,51.6
2018-06-30T14:33:53.816Z,51.5
2018-06-30T14:34:44.146Z,51.4
2018-06-30T14:35:33.936Z,51.3
2018-06-30T14:36:23.729Z,51.3
2018-06-30T14:37:14.132Z,51.2
2018-06-30T14:38:04.427Z,51.1
2018-06-30T14:38:53.974Z,51.1
2018-06-30T14:39:43.986Z,51
2018-06-30T14:40:33.841Z,50.9
2018-06-30T14:41:24.451Z,50.7
2018-06-30T14:42:14.723Z,50.6
2018-06-30T14:43:04.513Z,50.6
2018-06-30T14:43:55.549Z,50.4
2018-06-30T14:44:44.250Z,50.4
2018-06-30T14:45:33.950Z,50.3
2018-06-30T14:46:25.123Z,50.2
2018-06-30T14:47:14.846Z,49.9
2018-06-30T14:48:04.870Z,49.8
2018-06-30T14:48:54.683Z,49.6
2018-06-30T14:49:45.868Z,49.4
2018-06-30T14:50:35.085Z,49.1
2018-06-30T14:51:25.472Z,48.8
2018-06-30T14:52:14.930Z,48.3
2018-06-30T14:53:04.718Z,47.9
2018-06-30T14:53:54.809Z,47.5
2018-06-30T14:54:45.175Z,47.1
2018-06-30T14:55:34.909Z,46.8
2018-06-30T14:56:24.695Z,46.4
2018-06-30T14:57:15.354Z,46.1
2018-06-30T14:58:05.095Z,45.8
2018-06-30T14:58:56.089Z,45.6
2018-06-30T14:59:45.817Z,45.3
2018-06-30T15:00:35.598Z,45.1
2018-06-30T15:01:25.704Z,44.9
2018-06-30T15:02:16.039Z,44.8
2018-06-30T15:03:06.071Z,44.6
2018-06-30T15:03:56.191Z,44.4
2018-06-30T15:04:45.904Z,44.3
2018-06-30T15:05:36.038Z,44.1
2018-06-30T15:06:26.419Z,43.9
2018-06-30T15:07:16.151Z,43.8
2018-06-30T15:08:06.451Z,43.6
2018-06-30T15:08:56.803Z,43.5
2018-06-30T15:09:46.631Z,43.4
2018-06-30T15:10:36.370Z,43.3
2018-06-30T15:11:26.183Z,43.1
2018-06-30T15:12:16.516Z,43
2018-06-30T15:13:06.836Z,42.9
2018-06-30T15:13:56.938Z,42.8
2018-06-30T15:14:47.276Z,42.7
2018-06-30T15:15:37.030Z,42.6
2018-06-30T15:16:27.403Z,42.4
2018-06-30T15:17:17.220Z,42.4
2018-06-30T15:18:06.986Z,42.3
2018-06-30T15:18:57.927Z,42.2
2018-06-30T15:19:47.668Z,42.1
2018-06-30T15:20:37.163Z,42.1
2018-06-30T15:21:27.185Z,42
2018-06-30T15:22:16.477Z,41.9
2018-06-30T15:23:07.700Z,41.8
2018-06-30T15:23:56.968Z,41.8
2018-06-30T15:24:47.470Z,41.6
2018-06-30T15:25:38.130Z,41.6
2018-06-30T15:26:27.595Z,41.5
2018-06-30T15:27:17.415Z,41.4
2018-06-30T15:28:08.310Z,41.4
2018-06-30T15:28:58.063Z,41.3
2018-06-30T15:29:47.423Z,41.3
2018-06-30T15:30:37.905Z,41.3
2018-06-30T15:31:28.560Z,41.2
2018-06-30T15:32:17.810Z,41.1
2018-06-30T15:33:08.770Z,41.1
2018-06-30T15:33:58.203Z,41
2018-06-30T15:34:48.820Z,40.9
2018-06-30T15:35:38.855Z,40.9
2018-06-30T15:36:28.700Z,40.9
2018-06-30T15:37:18.197Z,40.9
2018-06-30T15:38:08.795Z,40.8
2018-06-30T15:38:58.259Z,40.8
2018-06-30T15:39:47.657Z,40.7
2018-06-30T15:40:38.746Z,40.7
2018-06-30T15:41:28.729Z,40.6
2018-06-30T15:42:19.379Z,40.6
2018-06-30T15:43:09.487Z,40.6
2018-06-30T15:43:59.244Z,40.6
2018-06-30T15:44:48.732Z,40.5
2018-06-30T15:45:38.866Z,40.5
2018-06-30T15:46:28.812Z,40.4
2018-06-30T15:47:18.646Z,40.4
2018-06-30T15:48:09.549Z,40.4
2018-06-30T15:48:58.796Z,40.4
2018-06-30T15:49:49.953Z,40.4
2018-06-30T15:50:40.033Z,40.3
2018-06-30T15:51:29.845Z,40.3
2018-06-30T15:52:19.886Z,40.3
2018-06-30T15:53:09.929Z,40.3
2018-06-30T15:54:00.854Z,40.3
2018-06-30T15:54:50.395Z,40.3
2018-06-30T15:55:40.691Z,40.2
2018-06-30T15:56:29.926Z,40.2
2018-06-30T15:57:20.498Z,40.1
2018-06-30T15:58:10.116Z,40.1
2018-06-30T15:58:59.880Z,40.1
2018-06-30T15:59:50.445Z,40.1
2018-06-30T16:00:40.229Z,40.1
2018-06-30T16:01:30.851Z,40.1
2018-06-30T16:02:20.125Z,40
2018-06-30T16:03:10.723Z,40
2018-06-30T16:04:00.758Z,40
2018-06-30T16:04:50.568Z,39.9
2018-06-30T16:05:40.640Z,39.9
2018-06-30T16:06:30.988Z,39.9
2018-06-30T16:07:20.475Z,39.9
2018-06-30T16:08:11.249Z,39.9
2018-06-30T16:09:00.884Z,39.9
2018-06-30T16:09:51.796Z,39.9